sensor_id;sensor_type;location;lat;lon;timestamp;P1;durP1;ratioP1;P2;durP2;ratioP2
76846;SDS011;65813;49.546;8.644;2023-10-09T03:48:58;8.73;;;3.58;;
76846;SDS011;65813;49.546;8.644;2023-10-09T03:53:01;9.95;;;3.95;;
76846;SDS011;65813;49.546;8.644;2023-10-09T03:57:04;11.23;;;4.35;;
76846;SDS011;65813;49.546;8.644;2023-10-09T04:01:09;13.10;;;3.67;;
76846;SDS011;65813;49.546;8.644;2023-10-09T04:05:16;14.48;;;3.88;;
76846;SDS011;65813;49.546;8.644;2023-10-09T04:09:17;12.02;;;4.50;;
76846;SDS011;65813;49.546;8.644;2023-10-09T04:13:20;14.55;;;3.70;;
76846;SDS011;65813;49.546;8.644;2023-10-09T04:17:26;11.35;;;3.85;;
76846;SDS011;65813;49.546;8.644;2023-10-09T04:21:29;13.43;;;3.95;;
76846;SDS011;65813;49.546;8.644;2023-10-09T04:25:36;16.40;;;3.90;;
76846;SDS011;65813;49.546;8.644;2023-10-09T04:29:42;11.27;;;4.07;;
76846;SDS011;65813;49.546;8.644;2023-10-09T04:33:48;11.95;;;4.25;;
76846;SDS011;65813;49.546;8.644;2023-10-09T04:38:14;11.85;;;3.50;;
76846;SDS011;65813;49.546;8.644;2023-10-09T04:42:15;11.77;;;3.50;;
76846;SDS011;65813;49.546;8.644;2023-10-09T04:46:24;9.85;;;3.55;;
76846;SDS011;65813;49.546;8.644;2023-10-09T04:50:26;12.50;;;3.80;;
76846;SDS011;65813;49.546;8.644;2023-10-09T04:59:19;11.00;;;4.65;;
76846;SDS011;65813;49.546;8.644;2023-10-09T05:03:24;9.85;;;3.33;;
76846;SDS011;65813;49.546;8.644;2023-10-09T05:07:28;9.65;;;4.07;;
76846;SDS011;65813;49.546;8.644;2023-10-09T05:11:55;9.00;;;3.15;;
76846;SDS011;65813;49.546;8.644;2023-10-09T05:20:25;8.07;;;3.47;;
76846;SDS011;65813;49.546;8.644;2023-10-09T05:24:25;10.93;;;3.83;;
76846;SDS011;65813;49.546;8.644;2023-10-09T05:28:28;9.90;;;3.55;;
76846;SDS011;65813;49.546;8.644;2023-10-09T05:32:32;8.13;;;3.22;;
76846;SDS011;65813;49.546;8.644;2023-10-09T05:36:35;7.90;;;3.13;;
76846;SDS011;65813;49.546;8.644;2023-10-09T05:40:35;11.50;;;4.00;;
76846;SDS011;65813;49.546;8.644;2023-10-09T05:44:35;8.63;;;3.90;;
76846;SDS011;65813;49.546;8.644;2023-10-09T05:48:54;12.40;;;3.55;;
76846;SDS011;65813;49.546;8.644;2023-10-09T05:52:56;11.23;;;4.00;;
76846;SDS011;65813;49.546;8.644;2023-10-09T05:56:56;8.15;;;3.45;;
76846;SDS011;65813;49.546;8.644;2023-10-09T06:01:09;10.05;;;3.15;;
76846;SDS011;65813;49.546;8.644;2023-10-09T06:05:28;8.57;;;3.88;;
76846;SDS011;65813;49.546;8.644;2023-10-09T06:09:41;9.65;;;3.85;;
76846;SDS011;65813;49.546;8.644;2023-10-09T06:13:56;10.43;;;3.20;;
76846;SDS011;65813;49.546;8.644;2023-10-09T06:22:32;7.82;;;3.28;;
76846;SDS011;65813;49.546;8.644;2023-10-09T06:26:36;9.50;;;4.32;;
76846;SDS011;65813;49.546;8.644;2023-10-09T06:30:36;8.98;;;3.65;;
76846;SDS011;65813;49.546;8.644;2023-10-09T06:34:44;9.88;;;3.35;;
76846;SDS011;65813;49.546;8.644;2023-10-09T06:38:46;8.55;;;3.28;;
76846;SDS011;65813;49.546;8.644;2023-10-09T06:43:06;8.52;;;3.03;;
76846;SDS011;65813;49.546;8.644;2023-10-09T06:47:15;13.32;;;3.60;;
76846;SDS011;65813;49.546;8.644;2023-10-09T06:51:18;7.90;;;3.00;;
76846;SDS011;65813;49.546;8.644;2023-10-09T06:55:27;12.60;;;3.40;;
76846;SDS011;65813;49.546;8.644;2023-10-09T06:59:35;10.63;;;3.58;;
76846;SDS011;65813;49.546;8.644;2023-10-09T07:04:02;8.00;;;3.63;;
76846;SDS011;65813;49.546;8.644;2023-10-09T07:08:40;12.45;;;3.60;;
76846;SDS011;65813;49.546;8.644;2023-10-09T07:12:58;11.95;;;3.50;;
76846;SDS011;65813;49.546;8.644;2023-10-09T07:16:59;9.37;;;3.33;;
76846;SDS011;65813;49.546;8.644;2023-10-09T07:21:15;13.00;;;3.72;;
76846;SDS011;65813;49.546;8.644;2023-10-09T07:25:26;11.80;;;3.63;;
76846;SDS011;65813;49.546;8.644;2023-10-09T07:29:50;13.60;;;4.10;;
76846;SDS011;65813;49.546;8.644;2023-10-09T07:33:51;10.23;;;3.90;;
76846;SDS011;65813;49.546;8.644;2023-10-09T07:37:57;13.45;;;4.00;;
76846;SDS011;65813;49.546;8.644;2023-10-09T07:41:58;15.80;;;3.60;;
76846;SDS011;65813;49.546;8.644;2023-10-09T07:46:15;9.02;;;3.38;;
76846;SDS011;65813;49.546;8.644;2023-10-09T07:50:36;12.43;;;4.07;;
76846;SDS011;65813;49.546;8.644;2023-10-09T07:54:48;11.00;;;3.55;;
76846;SDS011;65813;49.546;8.644;2023-10-09T07:59:01;10.65;;;3.53;;
76846;SDS011;65813;49.546;8.644;2023-10-09T08:03:10;9.48;;;3.00;;
76846;SDS011;65813;49.546;8.644;2023-10-09T08:07:23;12.30;;;3.72;;
76846;SDS011;65813;49.546;8.644;2023-10-09T08:11:34;10.77;;;3.50;;
76846;SDS011;65813;49.546;8.644;2023-10-09T08:15:40;11.88;;;4.15;;
76846;SDS011;65813;49.546;8.644;2023-10-09T08:19:52;13.75;;;3.97;;
76846;SDS011;65813;49.546;8.644;2023-10-09T08:23:56;12.05;;;3.10;;
76846;SDS011;65813;49.546;8.644;2023-10-09T08:28:04;13.68;;;3.78;;
76846;SDS011;65813;49.546;8.644;2023-10-09T08:32:31;12.45;;;3.42;;
76846;SDS011;65813;49.546;8.644;2023-10-09T08:36:38;12.68;;;3.95;;
76846;SDS011;65813;49.546;8.644;2023-10-09T08:40:41;13.25;;;3.33;;
76846;SDS011;65813;49.546;8.644;2023-10-09T08:44:43;13.45;;;3.60;;
76846;SDS011;65813;49.546;8.644;2023-10-09T08:48:44;14.02;;;3.83;;
76846;SDS011;65813;49.546;8.644;2023-10-09T08:52:45;12.95;;;4.30;;
76846;SDS011;65813;49.546;8.644;2023-10-09T08:56:48;10.25;;;3.38;;
76846;SDS011;65813;49.546;8.644;2023-10-09T09:00:52;11.32;;;3.35;;
76846;SDS011;65813;49.546;8.644;2023-10-09T09:04:55;10.23;;;3.10;;
76846;SDS011;65813;49.546;8.644;2023-10-09T09:08:55;8.37;;;3.13;;
76846;SDS011;65813;49.546;8.644;2023-10-09T09:13:16;10.73;;;3.97;;
76846;SDS011;65813;49.546;8.644;2023-10-09T09:17:22;12.32;;;3.47;;
76846;SDS011;65813;49.546;8.644;2023-10-09T09:21:23;18.25;;;3.85;;
76846;SDS011;65813;49.546;8.644;2023-10-09T09:25:24;11.20;;;3.00;;
76846;SDS011;65813;49.546;8.644;2023-10-09T09:29:39;10.30;;;3.25;;
76846;SDS011;65813;49.546;8.644;2023-10-09T09:33:41;12.18;;;3.03;;
76846;SDS011;65813;49.546;8.644;2023-10-09T09:37:52;10.00;;;3.72;;
76846;SDS011;65813;49.546;8.644;2023-10-09T09:42:00;9.55;;;3.35;;
76846;SDS011;65813;49.546;8.644;2023-10-09T09:46:13;13.32;;;3.88;;
76846;SDS011;65813;49.546;8.644;2023-10-09T09:50:15;10.82;;;4.30;;
76846;SDS011;65813;49.546;8.644;2023-10-09T09:54:18;11.55;;;3.47;;
76846;SDS011;65813;49.546;8.644;2023-10-09T09:58:21;14.82;;;3.75;;
76846;SDS011;65813;49.546;8.644;2023-10-09T10:02:30;10.00;;;3.85;;
76846;SDS011;65813;49.546;8.644;2023-10-09T10:06:35;14.48;;;3.20;;
76846;SDS011;65813;49.546;8.644;2023-10-09T10:14:54;13.27;;;4.05;;
76846;SDS011;65813;49.546;8.644;2023-10-09T10:19:03;9.05;;;3.47;;
76846;SDS011;65813;49.546;8.644;2023-10-09T10:23:17;13.88;;;3.90;;
76846;SDS011;65813;49.546;8.644;2023-10-09T10:27:25;11.23;;;3.53;;
76846;SDS011;65813;49.546;8.644;2023-10-09T10:35:56;11.75;;;3.33;;
76846;SDS011;65813;49.546;8.644;2023-10-09T10:39:58;19.42;;;5.50;;
76846;SDS011;65813;49.546;8.644;2023-10-09T10:44:01;12.80;;;4.15;;
76846;SDS011;65813;49.546;8.644;2023-10-09T10:48:20;13.90;;;4.28;;
76846;SDS011;65813;49.546;8.644;2023-10-09T10:52:37;11.35;;;3.95;;
76846;SDS011;65813;49.546;8.644;2023-10-09T10:56:44;9.98;;;3.38;;
76846;SDS011;65813;49.546;8.644;2023-10-09T11:04:56;11.45;;;3.40;;
76846;SDS011;65813;49.546;8.644;2023-10-09T11:09:14;11.68;;;3.50;;
76846;SDS011;65813;49.546;8.644;2023-10-09T11:13:35;11.30;;;3.30;;
76846;SDS011;65813;49.546;8.644;2023-10-09T11:22:08;13.32;;;3.50;;
76846;SDS011;65813;49.546;8.644;2023-10-09T11:26:08;13.60;;;3.10;;
76846;SDS011;65813;49.546;8.644;2023-10-09T11:30:32;14.38;;;3.67;;
76846;SDS011;65813;49.546;8.644;2023-10-09T11:34:32;14.48;;;3.80;;
76846;SDS011;65813;49.546;8.644;2023-10-09T11:38:38;9.10;;;2.85;;
76846;SDS011;65813;49.546;8.644;2023-10-09T11:42:39;10.50;;;3.28;;
76846;SDS011;65813;49.546;8.644;2023-10-09T11:46:56;12.45;;;3.40;;
76846;SDS011;65813;49.546;8.644;2023-10-09T11:51:22;16.63;;;3.42;;
76846;SDS011;65813;49.546;8.644;2023-10-09T11:55:22;10.03;;;3.17;;
76846;SDS011;65813;49.546;8.644;2023-10-09T11:59:25;8.55;;;3.38;;
76846;SDS011;65813;49.546;8.644;2023-10-09T12:03:26;9.37;;;2.83;;
76846;SDS011;65813;49.546;8.644;2023-10-09T12:07:29;8.05;;;2.92;;
76846;SDS011;65813;49.546;8.644;2023-10-09T12:11:30;11.53;;;2.90;;
76846;SDS011;65813;49.546;8.644;2023-10-09T12:15:31;7.18;;;3.45;;
76846;SDS011;65813;49.546;8.644;2023-10-09T12:19:39;9.45;;;3.50;;
76846;SDS011;65813;49.546;8.644;2023-10-09T12:23:39;10.47;;;2.97;;
76846;SDS011;65813;49.546;8.644;2023-10-09T12:27:41;11.13;;;3.38;;
76846;SDS011;65813;49.546;8.644;2023-10-09T12:31:43;6.97;;;2.72;;
76846;SDS011;65813;49.546;8.644;2023-10-09T12:35:45;13.05;;;3.33;;
76846;SDS011;65813;49.546;8.644;2023-10-09T12:39:47;9.68;;;3.28;;
76846;SDS011;65813;49.546;8.644;2023-10-09T12:43:47;7.90;;;3.25;;
76846;SDS011;65813;49.546;8.644;2023-10-09T12:47:48;10.43;;;4.03;;
76846;SDS011;65813;49.546;8.644;2023-10-09T12:51:48;9.73;;;3.50;;
76846;SDS011;65813;49.546;8.644;2023-10-09T12:55:48;8.53;;;3.50;;
76846;SDS011;65813;49.546;8.644;2023-10-09T12:59:49;9.75;;;3.17;;
76846;SDS011;65813;49.546;8.644;2023-10-09T13:03:50;8.40;;;3.10;;
76846;SDS011;65813;49.546;8.644;2023-10-09T13:07:50;9.57;;;3.53;;
76846;SDS011;65813;49.546;8.644;2023-10-09T13:11:51;7.40;;;3.13;;
76846;SDS011;65813;49.546;8.644;2023-10-09T13:15:51;13.80;;;4.53;;
76846;SDS011;65813;49.546;8.644;2023-10-09T13:19:53;10.85;;;3.15;;
76846;SDS011;65813;49.546;8.644;2023-10-09T13:23:54;7.90;;;3.30;;
76846;SDS011;65813;49.546;8.644;2023-10-09T13:27:54;14.47;;;4.17;;
76846;SDS011;65813;49.546;8.644;2023-10-09T13:31:55;9.13;;;3.27;;
76846;SDS011;65813;49.546;8.644;2023-10-09T13:36:02;9.55;;;3.35;;
76846;SDS011;65813;49.546;8.644;2023-10-09T13:40:06;9.32;;;3.58;;
76846;SDS011;65813;49.546;8.644;2023-10-09T13:44:09;10.68;;;3.83;;
76846;SDS011;65813;49.546;8.644;2023-10-09T13:48:10;10.13;;;3.37;;
76846;SDS011;65813;49.546;8.644;2023-10-09T13:52:11;8.23;;;3.13;;
76846;SDS011;65813;49.546;8.644;2023-10-09T13:56:18;9.48;;;2.90;;
76846;SDS011;65813;49.546;8.644;2023-10-09T14:00:20;10.38;;;3.38;;
76846;SDS011;65813;49.546;8.644;2023-10-09T14:04:32;9.63;;;3.15;;
76846;SDS011;65813;49.546;8.644;2023-10-09T14:08:34;7.60;;;3.00;;
76846;SDS011;65813;49.546;8.644;2023-10-09T14:12:34;7.67;;;3.30;;
76846;SDS011;65813;49.546;8.644;2023-10-09T14:16:39;8.65;;;3.08;;
76846;SDS011;65813;49.546;8.644;2023-10-09T14:20:43;8.00;;;2.90;;
76846;SDS011;65813;49.546;8.644;2023-10-09T14:24:47;8.68;;;3.25;;
76846;SDS011;65813;49.546;8.644;2023-10-09T14:28:48;7.78;;;2.72;;
76846;SDS011;65813;49.546;8.644;2023-10-09T14:32:49;12.80;;;3.67;;
76846;SDS011;65813;49.546;8.644;2023-10-09T14:36:55;7.68;;;3.05;;
76846;SDS011;65813;49.546;8.644;2023-10-09T14:41:00;7.28;;;3.00;;
76846;SDS011;65813;49.546;8.644;2023-10-09T14:45:02;7.57;;;3.30;;
76846;SDS011;65813;49.546;8.644;2023-10-09T14:49:08;7.38;;;3.20;;
76846;SDS011;65813;49.546;8.644;2023-10-09T14:53:13;10.20;;;3.10;;
76846;SDS011;65813;49.546;8.644;2023-10-09T14:57:15;12.20;;;3.50;;
76846;SDS011;65813;49.546;8.644;2023-10-09T15:01:15;6.70;;;3.03;;
76846;SDS011;65813;49.546;8.644;2023-10-09T15:05:19;8.27;;;3.40;;
76846;SDS011;65813;49.546;8.644;2023-10-09T15:09:22;10.98;;;3.28;;
76846;SDS011;65813;49.546;8.644;2023-10-09T15:13:23;10.02;;;3.28;;
76846;SDS011;65813;49.546;8.644;2023-10-09T15:17:28;7.35;;;3.25;;
76846;SDS011;65813;49.546;8.644;2023-10-09T15:21:28;6.53;;;3.10;;
76846;SDS011;65813;49.546;8.644;2023-10-09T15:25:32;9.23;;;3.63;;
76846;SDS011;65813;49.546;8.644;2023-10-09T15:29:34;8.48;;;3.30;;
76846;SDS011;65813;49.546;8.644;2023-10-09T15:33:37;9.88;;;3.25;;
76846;SDS011;65813;49.546;8.644;2023-10-09T15:37:39;7.88;;;3.10;;
76846;SDS011;65813;49.546;8.644;2023-10-09T15:41:42;9.15;;;3.22;;
76846;SDS011;65813;49.546;8.644;2023-10-09T15:45:43;7.10;;;2.97;;
76846;SDS011;65813;49.546;8.644;2023-10-09T15:49:50;9.02;;;3.40;;
76846;SDS011;65813;49.546;8.644;2023-10-09T15:53:54;9.52;;;3.40;;
76846;SDS011;65813;49.546;8.644;2023-10-09T15:57:56;7.30;;;2.83;;
76846;SDS011;65813;49.546;8.644;2023-10-09T16:01:59;9.30;;;3.25;;
76846;SDS011;65813;49.546;8.644;2023-10-09T16:05:59;7.87;;;2.80;;
76846;SDS011;65813;49.546;8.644;2023-10-09T16:09:59;9.17;;;2.87;;
76846;SDS011;65813;49.546;8.644;2023-10-09T16:14:05;14.52;;;3.72;;
76846;SDS011;65813;49.546;8.644;2023-10-09T16:18:09;10.45;;;3.40;;
76846;SDS011;65813;49.546;8.644;2023-10-09T16:22:10;9.57;;;4.22;;
76846;SDS011;65813;49.546;8.644;2023-10-09T16:26:13;10.18;;;3.42;;
76846;SDS011;65813;49.546;8.644;2023-10-09T16:30:17;11.97;;;3.33;;
76846;SDS011;65813;49.546;8.644;2023-10-09T16:34:21;13.07;;;3.85;;
76846;SDS011;65813;49.546;8.644;2023-10-09T16:38:25;11.05;;;4.45;;
76846;SDS011;65813;49.546;8.644;2023-10-09T16:42:26;12.30;;;4.57;;
76846;SDS011;65813;49.546;8.644;2023-10-09T16:46:26;11.70;;;4.90;;
76846;SDS011;65813;49.546;8.644;2023-10-09T16:50:26;13.02;;;4.55;;
76846;SDS011;65813;49.546;8.644;2023-10-09T16:54:28;10.80;;;4.18;;
76846;SDS011;65813;49.546;8.644;2023-10-09T16:58:28;9.43;;;3.53;;
76846;SDS011;65813;49.546;8.644;2023-10-09T17:02:28;15.63;;;6.07;;
76846;SDS011;65813;49.546;8.644;2023-10-09T17:06:30;12.88;;;5.30;;
76846;SDS011;65813;49.546;8.644;2023-10-09T17:10:34;12.00;;;5.32;;
76846;SDS011;65813;49.546;8.644;2023-10-09T17:14:36;17.25;;;6.63;;
76846;SDS011;65813;49.546;8.644;2023-10-09T17:18:37;17.48;;;7.47;;
76846;SDS011;65813;49.546;8.644;2023-10-09T17:22:37;14.67;;;6.13;;
76846;SDS011;65813;49.546;8.644;2023-10-09T17:26:38;14.40;;;6.55;;
76846;SDS011;65813;49.546;8.644;2023-10-09T17:30:39;12.90;;;5.30;;
76846;SDS011;65813;49.546;8.644;2023-10-09T17:34:39;10.57;;;4.83;;
76846;SDS011;65813;49.546;8.644;2023-10-09T17:38:39;10.77;;;4.32;;
76846;SDS011;65813;49.546;8.644;2023-10-09T17:42:40;9.20;;;4.22;;
76846;SDS011;65813;49.546;8.644;2023-10-09T17:46:41;13.55;;;4.60;;
76846;SDS011;65813;49.546;8.644;2023-10-09T17:50:41;9.90;;;4.10;;
76846;SDS011;65813;49.546;8.644;2023-10-09T17:54:45;11.25;;;4.47;;
76846;SDS011;65813;49.546;8.644;2023-10-09T17:58:46;8.57;;;4.20;;
76846;SDS011;65813;49.546;8.644;2023-10-09T18:02:52;9.73;;;3.58;;
76846;SDS011;65813;49.546;8.644;2023-10-09T18:06:52;11.37;;;3.80;;
76846;SDS011;65813;49.546;8.644;2023-10-09T18:10:56;8.15;;;3.45;;
76846;SDS011;65813;49.546;8.644;2023-10-09T18:14:59;12.27;;;4.88;;
76846;SDS011;65813;49.546;8.644;2023-10-09T18:19:05;9.02;;;3.65;;
76846;SDS011;65813;49.546;8.644;2023-10-09T18:23:07;11.07;;;5.15;;
76846;SDS011;65813;49.546;8.644;2023-10-09T18:27:09;10.00;;;3.70;;
76846;SDS011;65813;49.546;8.644;2023-10-09T18:31:14;13.13;;;4.72;;
76846;SDS011;65813;49.546;8.644;2023-10-09T18:35:18;10.77;;;4.53;;
76846;SDS011;65813;49.546;8.644;2023-10-09T18:39:18;9.67;;;4.87;;
76846;SDS011;65813;49.546;8.644;2023-10-09T18:43:24;11.65;;;5.07;;
76846;SDS011;65813;49.546;8.644;2023-10-09T18:47:27;9.52;;;4.60;;
76846;SDS011;65813;49.546;8.644;2023-10-09T18:51:29;10.90;;;4.90;;
76846;SDS011;65813;49.546;8.644;2023-10-09T18:55:34;11.23;;;4.93;;
76846;SDS011;65813;49.546;8.644;2023-10-09T18:59:35;11.27;;;5.05;;
76846;SDS011;65813;49.546;8.644;2023-10-09T19:03:36;10.67;;;4.40;;
76846;SDS011;65813;49.546;8.644;2023-10-09T19:07:36;11.07;;;4.87;;
76846;SDS011;65813;49.546;8.644;2023-10-09T19:11:38;8.57;;;4.38;;
76846;SDS011;65813;49.546;8.644;2023-10-09T19:15:39;10.85;;;5.22;;
76846;SDS011;65813;49.546;8.644;2023-10-09T19:19:39;11.70;;;4.82;;
76846;SDS011;65813;49.546;8.644;2023-10-09T19:23:40;11.43;;;4.90;;
76846;SDS011;65813;49.546;8.644;2023-10-09T19:27:47;12.77;;;5.13;;
76846;SDS011;65813;49.546;8.644;2023-10-09T19:31:49;9.77;;;4.47;;
76846;SDS011;65813;49.546;8.644;2023-10-09T19:35:50;10.10;;;4.57;;
76846;SDS011;65813;49.546;8.644;2023-10-09T19:39:51;12.27;;;4.78;;
76846;SDS011;65813;49.546;8.644;2023-10-09T19:43:52;11.67;;;4.93;;
76846;SDS011;65813;49.546;8.644;2023-10-09T19:47:55;12.07;;;4.22;;
76846;SDS011;65813;49.546;8.644;2023-10-09T19:51:56;10.80;;;4.85;;
76846;SDS011;65813;49.546;8.644;2023-10-09T19:55:59;10.03;;;4.43;;
76846;SDS011;65813;49.546;8.644;2023-10-09T20:00:00;11.18;;;4.82;;
76846;SDS011;65813;49.546;8.644;2023-10-09T20:04:00;9.48;;;4.55;;
76846;SDS011;65813;49.546;8.644;2023-10-09T20:08:00;10.43;;;4.30;;
76846;SDS011;65813;49.546;8.644;2023-10-09T20:12:02;10.02;;;4.00;;
76846;SDS011;65813;49.546;8.644;2023-10-09T20:16:02;11.93;;;4.88;;
76846;SDS011;65813;49.546;8.644;2023-10-09T20:20:03;8.53;;;4.20;;
76846;SDS011;65813;49.546;8.644;2023-10-09T20:24:07;9.10;;;4.47;;
76846;SDS011;65813;49.546;8.644;2023-10-09T20:28:08;9.18;;;3.90;;
76846;SDS011;65813;49.546;8.644;2023-10-09T20:32:11;9.57;;;3.63;;
76846;SDS011;65813;49.546;8.644;2023-10-09T20:36:14;11.82;;;3.83;;
76846;SDS011;65813;49.546;8.644;2023-10-09T20:40:18;9.82;;;4.10;;
76846;SDS011;65813;49.546;8.644;2023-10-09T20:44:20;8.73;;;3.63;;
76846;SDS011;65813;49.546;8.644;2023-10-09T20:48:20;8.23;;;3.47;;
76846;SDS011;65813;49.546;8.644;2023-10-09T20:52:21;8.68;;;3.20;;
76846;SDS011;65813;49.546;8.644;2023-10-09T20:56:22;8.77;;;3.42;;
76846;SDS011;65813;49.546;8.644;2023-10-09T21:00:24;7.68;;;3.58;;
76846;SDS011;65813;49.546;8.644;2023-10-09T21:04:25;7.85;;;3.45;;
76846;SDS011;65813;49.546;8.644;2023-10-09T21:08:25;8.37;;;4.10;;
76846;SDS011;65813;49.546;8.644;2023-10-09T21:12:26;6.97;;;3.63;;
76846;SDS011;65813;49.546;8.644;2023-10-09T22:10:38;10.25;;;4.03;;
76846;SDS011;65813;49.546;8.644;2023-10-09T22:14:40;8.20;;;3.58;;
76846;SDS011;65813;49.546;8.644;2023-10-09T22:18:41;11.23;;;4.22;;
76846;SDS011;65813;49.546;8.644;2023-10-09T22:22:41;13.05;;;5.43;;
76846;SDS011;65813;49.546;8.644;2023-10-09T22:26:44;11.07;;;3.72;;
